Time;durP1;ratioP1;P1;durP2;ratioP2;P2;SDS_P1;SDS_P2;PMS_P1;PMS_P2;Temp;Humidity;BMP_temperature;BMP_pressure;BME280_temperature;BME280_humidity;BME280_pressure;Samples;Min_cycle;Max_cycle;Signal;HPM_P1;HPM_P2
2021/11/29 00:00:40;;;;;;;23.33;15.93;;;4.60;91.20;;;;;;5014209;28;20018;-79
2021/11/29 00:03:09;;;;;;;22.83;15.82;;;4.60;91.10;;;;;;5008388;28;20029;-81
2021/11/29 00:05:34;;;;;;;21.30;16.13;;;4.60;91.00;;;;;;5005751;28;20029;-81
2021/11/29 00:08:02;;;;;;;22.58;16.48;;;4.60;91.00;;;;;;5015676;28;20018;-82
2021/11/29 00:10:29;;;;;;;27.02;17.52;;;4.60;91.10;;;;;;5023294;28;20054;-82
2021/11/29 00:12:56;;;;;;;25.35;17.25;;;4.60;91.00;;;;;;5014617;28;20057;-80
2021/11/29 00:15:22;;;;;;;23.80;15.55;;;4.60;91.00;;;;;;5008888;28;20369;-80
2021/11/29 00:17:48;;;;;;;22.42;16.48;;;4.70;91.00;;;;;;5006919;28;20375;-80
2021/11/29 00:20:16;;;;;;;24.52;17.63;;;4.70;90.90;;;;;;5010832;28;20064;-81
2021/11/29 00:22:42;;;;;;;23.02;16.00;;;4.70;90.90;;;;;;5003606;28;20442;-80
2021/11/29 00:25:10;;;;;;;25.52;16.65;;;4.70;90.90;;;;;;5012810;28;20038;-80
2021/11/29 00:27:37;;;;;;;23.98;17.33;;;4.70;90.90;;;;;;5013801;28;20483;-80
2021/11/29 00:30:05;;;;;;;24.00;16.40;;;4.70;90.80;;;;;;5013731;28;20049;-83
2021/11/29 00:32:31;;;;;;;23.05;16.20;;;4.70;90.70;;;;;;5020624;28;20034;-82
2021/11/29 00:34:57;;;;;;;25.15;16.85;;;4.70;90.70;;;;;;5019943;28;20038;-82
2021/11/29 00:37:24;;;;;;;19.77;16.17;;;4.70;90.70;;;;;;5001609;28;20061;-83
2021/11/29 00:39:51;;;;;;;23.60;17.13;;;4.70;90.70;;;;;;5014855;28;20076;-82
2021/11/29 00:42:17;;;;;;;18.83;14.75;;;4.70;90.70;;;;;;5002123;28;20022;-81
2021/11/29 00:44:43;;;;;;;24.45;16.05;;;4.70;90.70;;;;;;5014723;28;20088;-82
2021/11/29 00:47:09;;;;;;;16.38;14.43;;;4.70;90.70;;;;;;5015878;28;20391;-83
2021/11/29 00:49:35;;;;;;;22.50;16.55;;;4.70;90.70;;;;;;5013847;28;20033;-82
2021/11/29 00:52:01;;;;;;;23.83;17.08;;;4.70;90.70;;;;;;5014574;28;20018;-82
2021/11/29 00:54:27;;;;;;;22.88;17.58;;;4.80;90.60;;;;;;5012859;28;20048;-82
2021/11/29 00:56:53;;;;;;;23.80;17.52;;;4.80;90.60;;;;;;5013649;28;20104;-83
2021/11/29 00:59:19;;;;;;;22.05;16.52;;;4.80;90.70;;;;;;5014160;28;20033;-82
2021/11/29 01:01:44;;;;;;;21.60;15.98;;;4.80;90.60;;;;;;5015562;28;20028;-83
2021/11/29 01:04:11;;;;;;;26.42;17.67;;;4.70;90.70;;;;;;5003089;28;20058;-81
2021/11/29 01:06:37;;;;;;;23.85;17.70;;;4.70;90.80;;;;;;4992702;28;20026;-83
2021/11/29 01:09:04;;;;;;;24.67;17.35;;;4.70;90.80;;;;;;4994395;28;20034;-81
2021/11/29 01:11:30;;;;;;;25.08;17.48;;;4.80;90.80;;;;;;4997382;28;20030;-81
2021/11/29 01:13:56;;;;;;;27.58;18.25;;;4.80;90.80;;;;;;5000985;28;20025;-81
2021/11/29 01:16:22;;;;;;;28.65;18.35;;;4.90;90.80;;;;;;5000110;28;20034;-81
2021/11/29 01:18:48;;;;;;;26.92;15.57;;;4.90;90.80;;;;;;4995924;28;20033;-80
2021/11/29 01:21:14;;;;;;;24.13;17.65;;;4.90;90.70;;;;;;4993850;28;20030;-81
2021/11/29 01:23:41;;;;;;;24.05;18.38;;;4.80;90.70;;;;;;4992336;28;20081;-79
2021/11/29 01:26:07;;;;;;;26.25;18.48;;;4.70;90.80;;;;;;5013626;28;20550;-81
2021/11/29 01:28:33;;;;;;;19.73;16.20;;;4.60;90.90;;;;;;5013188;28;20026;-81
2021/11/29 01:30:59;;;;;;;28.75;17.52;;;4.50;91.00;;;;;;5013292;28;20044;-81
2021/11/29 01:33:25;;;;;;;24.80;18.40;;;4.50;91.30;;;;;;5013326;28;20026;-83
2021/11/29 01:35:51;;;;;;;27.77;18.30;;;4.50;91.40;;;;;;5013075;28;20033;-82
2021/11/29 01:38:17;;;;;;;29.25;17.55;;;4.50;91.80;;;;;;5013375;28;20029;-81
2021/11/29 01:40:42;;;;;;;26.33;18.00;;;4.50;91.50;;;;;;5013046;28;20026;-81
2021/11/29 01:43:12;;;;;;;25.20;16.90;;;4.50;91.60;;;;;;5013051;28;20029;-81
2021/11/29 01:45:44;;;;;;;27.05;19.02;;;4.50;91.60;;;;;;5013340;28;20388;-81
2021/11/29 01:48:11;;;;;;;25.00;17.52;;;4.60;91.80;;;;;;5013096;28;20022;-83
2021/11/29 01:50:39;;;;;;;29.00;18.13;;;4.60;91.80;;;;;;5013512;28;20053;-82
2021/11/29 01:53:05;;;;;;;30.67;18.40;;;4.70;91.80;;;;;;5016531;28;20089;-82
2021/11/29 01:55:31;;;;;;;34.20;19.77;;;4.70;91.80;;;;;;5012321;28;20125;-82
2021/11/29 01:57:58;;;;;;;30.45;20.05;;;4.70;91.90;;;;;;5013466;28;20093;-83
2021/11/29 02:00:28;;;;;;;29.63;17.80;;;4.70;92.00;;;;;;5014271;28;20022;-84
2021/11/29 02:02:55;;;;;;;25.35;18.85;;;4.70;92.00;;;;;;5013264;28;20106;-80
2021/11/29 02:05:22;;;;;;;28.92;18.95;;;4.70;92.00;;;;;;5013662;28;20418;-80
2021/11/29 02:07:49;;;;;;;26.15;18.90;;;4.70;92.00;;;;;;5014225;28;20080;-81
2021/11/29 02:10:17;;;;;;;32.58;21.77;;;4.70;92.00;;;;;;5014795;28;20426;-81
2021/11/29 02:12:43;;;;;;;29.05;20.45;;;4.70;92.10;;;;;;5020602;28;20097;-80
2021/11/29 02:15:14;;;;;;;27.67;20.40;;;4.80;92.20;;;;;;5014345;28;20120;-82
2021/11/29 02:17:44;;;;;;;35.75;21.98;;;4.80;92.20;;;;;;5012714;28;20356;-82
2021/11/29 02:20:12;;;;;;;31.75;21.70;;;4.80;92.20;;;;;;5013309;28;20160;-80
2021/11/29 02:22:40;;;;;;;29.85;20.63;;;4.80;92.30;;;;;;5012997;28;20033;-81
2021/11/29 02:25:07;;;;;;;33.45;22.98;;;4.70;92.60;;;;;;5011370;28;20041;-80
2021/11/29 02:27:35;;;;;;;31.98;22.75;;;4.80;92.40;;;;;;5011520;28;20108;-81
2021/11/29 02:30:01;;;;;;;36.03;23.73;;;4.80;92.50;;;;;;5012761;28;20026;-82
2021/11/29 02:32:27;;;;;;;34.78;24.10;;;4.80;92.60;;;;;;5011517;28;20037;-80
2021/11/29 02:34:53;;;;;;;37.13;23.40;;;4.70;92.60;;;;;;5015428;28;20038;-80
2021/11/29 02:37:18;;;;;;;42.13;25.30;;;4.70;92.80;;;;;;5016362;28;20025;-79
2021/11/29 02:39:44;;;;;;;38.35;25.15;;;4.60;93.10;;;;;;5016644;28;20026;-81
2021/11/29 02:42:13;;;;;;;48.40;26.30;;;4.50;93.30;;;;;;5016112;28;20096;-81
2021/11/29 02:44:40;;;;;;;53.85;29.67;;;4.50;93.60;;;;;;5015930;28;20026;-81
2021/11/29 02:47:06;;;;;;;41.17;26.38;;;4.50;93.90;;;;;;5016022;28;20044;-82
2021/11/29 02:49:32;;;;;;;43.53;28.90;;;4.50;94.00;;;;;;5014551;28;20392;-81
2021/11/29 02:52:04;;;;;;;46.80;29.05;;;4.60;94.20;;;;;;5016078;28;20032;-82
2021/11/29 02:54:33;;;;;;;52.88;31.63;;;4.60;94.40;;;;;;5016031;28;20052;-81
2021/11/29 02:57:05;;;;;;;52.60;32.72;;;4.60;94.60;;;;;;5015761;28;20022;-79
2021/11/29 02:59:33;;;;;;;45.50;30.15;;;4.60;94.80;;;;;;5015908;28;20022;-80
2021/11/29 03:02:03;;;;;;;50.90;32.53;;;4.60;94.80;;;;;;5015608;28;20026;-80
2021/11/29 03:04:31;;;;;;;48.88;28.70;;;4.60;94.90;;;;;;5008964;28;20033;-81
2021/11/29 03:06:58;;;;;;;48.38;30.20;;;4.70;95.00;;;;;;5015694;28;20109;-81
2021/11/29 03:09:24;;;;;;;50.47;29.90;;;4.70;95.10;;;;;;5015525;28;20049;-81
2021/11/29 03:11:51;;;;;;;47.40;29.60;;;4.60;95.30;;;;;;5015215;28;20045;-79
2021/11/29 03:14:18;;;;;;;46.65;31.65;;;4.60;95.40;;;;;;5015616;28;20599;-81
2021/11/29 03:16:44;;;;;;;46.42;33.00;;;4.60;95.60;;;;;;5015275;28;20056;-81
2021/11/29 03:19:10;;;;;;;45.17;31.20;;;4.60;95.70;;;;;;5015446;28;20484;-81
2021/11/29 03:21:37;;;;;;;64.00;39.25;;;4.60;95.80;;;;;;5014481;28;20108;-81
2021/11/29 03:24:06;;;;;;;53.87;34.40;;;4.60;95.90;;;;;;5024408;28;20028;-79
2021/11/29 03:26:33;;;;;;;49.95;31.13;;;4.60;95.90;;;;;;5042538;28;20026;-81
2021/11/29 03:29:06;;;;;;;53.60;33.80;;;4.60;96.10;;;;;;5016834;28;20053;-81
2021/11/29 03:31:33;;;;;;;45.92;28.70;;;4.50;96.30;;;;;;5014278;28;20498;-82
2021/11/29 03:34:00;;;;;;;;;;;4.50;96.70;;;;;;5015663;28;20055;-80
2021/11/29 03:36:29;;;;;;;49.00;31.33;;;4.40;96.50;;;;;;5015728;28;19906;-82
2021/11/29 03:38:56;;;;;;;53.83;35.10;;;4.40;96.90;;;;;;5015641;28;20390;-82
2021/11/29 03:41:24;;;;;;;52.67;33.33;;;4.40;97.20;;;;;;5018056;28;20029;-82
2021/11/29 03:43:50;;;;;;;55.72;31.92;;;4.40;97.40;;;;;;5016298;28;20030;-82
2021/11/29 03:46:16;;;;;;;51.83;34.45;;;4.40;97.50;;;;;;5013310;28;20018;-81
2021/11/29 03:48:42;;;;;;;46.88;30.35;;;4.40;97.70;;;;;;5013772;28;20042;-82
2021/11/29 03:51:08;;;;;;;53.53;33.28;;;4.30;97.90;;;;;;5015721;28;20097;-82
2021/11/29 03:53:34;;;;;;;52.58;32.53;;;4.30;98.20;;;;;;5014926;28;20025;-83
2021/11/29 03:56:00;;;;;;;49.13;33.03;;;4.30;98.50;;;;;;5015317;28;20034;-80
2021/11/29 03:58:27;;;;;;;52.40;32.97;;;4.30;98.60;;;;;;5016349;28;20498;-82
2021/11/29 04:00:53;;;;;;;54.80;33.22;;;4.40;98.80;;;;;;5020145;28;20112;-81
2021/11/29 04:03:19;;;;;;;49.83;29.98;;;4.40;98.90;;;;;;5015225;28;20109;-82
2021/11/29 04:05:45;;;;;;;55.05;31.75;;;4.40;98.90;;;;;;5014695;28;20022;-81
2021/11/29 04:08:11;;;;;;;50.53;30.77;;;4.30;99.00;;;;;;5014898;28;20037;-82
2021/11/29 04:10:37;;;;;;;48.60;32.63;;;4.40;99.30;;;;;;5023717;28;20018;-83
2021/11/29 04:13:04;;;;;;;48.78;32.17;;;4.30;99.40;;;;;;5016713;28;20061;-81
2021/11/29 04:15:30;;;;;;;46.78;28.40;;;4.30;99.40;;;;;;5015523;28;20030;-81
2021/11/29 04:17:56;;;;;;;50.47;30.33;;;4.30;99.60;;;;;;5015523;28;20024;-81
2021/11/29 04:20:21;;;;;;;52.85;31.08;;;4.20;99.70;;;;;;5015640;28;20382;-80
2021/11/29 04:22:48;;;;;;;49.83;31.27;;;4.20;99.90;;;;;;5017043;28;20025;-80
2021/11/29 04:25:17;;;;;;;54.53;31.33;;;4.30;99.90;;;;;;5014360;28;20026;-81
2021/11/29 04:27:45;;;;;;;50.72;30.27;;;4.30;99.90;;;;;;5014610;28;20018;-83
2021/11/29 04:30:17;;;;;;;53.10;31.52;;;4.40;99.90;;;;;;5014760;28;20018;-82
2021/11/29 04:32:50;;;;;;;53.78;32.38;;;4.40;99.90;;;;;;5014114;28;20038;-82
2021/11/29 04:35:18;;;;;;;56.70;32.03;;;4.40;99.90;;;;;;5014060;28;20033;-81
2021/11/29 04:37:44;;;;;;;51.35;31.80;;;4.40;99.90;;;;;;5013010;28;20071;-81
2021/11/29 04:40:11;;;;;;;53.72;31.60;;;4.50;99.90;;;;;;5013831;28;20096;-81
2021/11/29 04:42:37;;;;;;;52.15;32.72;;;4.50;99.90;;;;;;5014616;28;20021;-80
2021/11/29 04:45:04;;;;;;;57.70;33.15;;;4.50;99.90;;;;;;5013933;28;20526;-82
2021/11/29 04:47:30;;;;;;;47.75;30.90;;;4.50;99.90;;;;;;4993790;28;20094;-83
2021/11/29 04:49:56;;;;;;;48.97;31.52;;;4.50;99.90;;;;;;4994174;28;20030;-81
2021/11/29 04:52:22;;;;;;;61.13;35.42;;;4.50;99.90;;;;;;4994156;28;20109;-83
2021/11/29 04:54:48;;;;;;;48.58;32.13;;;4.50;99.90;;;;;;4994730;28;20092;-81
2021/11/29 04:57:14;;;;;;;52.70;31.15;;;4.60;99.90;;;;;;4996222;28;20022;-82
2021/11/29 04:59:40;;;;;;;46.72;32.03;;;4.60;99.90;;;;;;4992544;28;20092;-82
2021/11/29 05:02:06;;;;;;;61.03;35.78;;;4.60;99.90;;;;;;4991652;28;20089;-83
2021/11/29 05:04:32;;;;;;;48.97;32.10;;;4.60;99.90;;;;;;4997132;28;20534;-82
2021/11/29 05:06:58;;;;;;;60.22;35.33;;;4.60;99.90;;;;;;5011248;28;20072;-82
2021/11/29 05:09:24;;;;;;;60.67;33.40;;;4.60;99.90;;;;;;5011648;28;20126;-83
2021/11/29 05:11:50;;;;;;;54.15;33.33;;;4.70;99.90;;;;;;5011833;28;20590;-82
2021/11/29 05:14:16;;;;;;;52.83;32.30;;;4.70;99.90;;;;;;5011121;28;20030;-82
2021/11/29 05:16:43;;;;;;;52.88;33.90;;;4.70;99.90;;;;;;5011418;28;20042;-83
2021/11/29 05:19:09;;;;;;;53.75;33.53;;;4.70;99.90;;;;;;5011426;28;20037;-81
2021/11/29 05:21:36;;;;;;;60.65;33.03;;;4.70;99.90;;;;;;5011206;28;20040;-83
2021/11/29 05:24:03;;;;;;;56.80;32.35;;;4.70;99.90;;;;;;5011259;28;20017;-83
2021/11/29 05:26:30;;;;;;;56.10;32.78;;;4.80;99.90;;;;;;4994708;28;20506;-81
2021/11/29 05:28:57;;;;;;;54.28;31.83;;;4.80;99.90;;;;;;5011362;28;20045;-82
2021/11/29 05:31:24;;;;;;;58.00;32.08;;;4.80;99.90;;;;;;5012949;28;20041;-83
2021/11/29 05:33:51;;;;;;;59.22;33.67;;;4.80;99.90;;;;;;5020731;28;20054;-82
2021/11/29 05:36:18;;;;;;;53.97;32.58;;;4.80;99.90;;;;;;5027985;28;20465;-84
2021/11/29 05:38:44;;;;;;;57.57;30.07;;;4.90;99.90;;;;;;5019949;28;20096;-81
2021/11/29 05:41:10;;;;;;;61.20;32.28;;;4.80;99.90;;;;;;5014746;28;20022;-81
2021/11/29 05:43:36;;;;;;;57.65;34.67;;;4.80;99.90;;;;;;5013646;28;20022;-83
2021/11/29 05:46:02;;;;;;;55.45;34.00;;;4.80;99.90;;;;;;5013287;28;20509;-83
2021/11/29 05:48:29;;;;;;;54.55;32.83;;;4.90;99.90;;;;;;5012058;28;20034;-84
2021/11/29 05:50:57;;;;;;;54.97;33.45;;;4.90;99.90;;;;;;5014000;28;20519;-83
2021/11/29 05:53:23;;;;;;;66.75;35.78;;;4.90;99.90;;;;;;5020191;28;20483;-84
2021/11/29 05:55:49;;;;;;;53.28;32.17;;;4.90;99.90;;;;;;5017677;28;20034;-84
2021/11/29 05:58:15;;;;;;;57.80;32.75;;;4.90;99.90;;;;;;5013847;28;20467;-83
2021/11/29 06:00:42;;;;;;;54.28;33.83;;;4.90;99.90;;;;;;5013808;28;20026;-82
2021/11/29 06:03:09;;;;;;;56.65;32.70;;;4.90;99.90;;;;;;5014317;28;20046;-83
2021/11/29 06:05:35;;;;;;;57.72;33.17;;;4.90;99.90;;;;;;5012695;28;20042;-83
2021/11/29 06:08:00;;;;;;;47.40;30.58;;;4.90;99.90;;;;;;5013404;28;20018;-83
2021/11/29 06:10:26;;;;;;;54.95;31.13;;;5.00;99.90;;;;;;5016809;28;20048;-83
2021/11/29 06:12:52;;;;;;;56.95;31.27;;;5.00;99.90;;;;;;5016619;28;20050;-82
2021/11/29 06:15:18;;;;;;;49.33;28.33;;;5.00;99.90;;;;;;5020993;28;20030;-81
2021/11/29 06:17:45;;;;;;;55.13;31.73;;;5.10;99.90;;;;;;5033752;28;20121;-81
2021/11/29 06:20:19;;;;;;;63.80;29.63;;;5.00;99.90;;;;;;5020428;28;20399;-81
2021/11/29 06:22:46;;;;;;;57.22;29.65;;;5.00;99.90;;;;;;5016508;28;20050;-83
2021/11/29 06:25:12;;;;;;;47.08;27.60;;;5.00;99.90;;;;;;5017346;28;20132;-82
2021/11/29 06:27:38;;;;;;;50.63;29.13;;;5.00;99.90;;;;;;5016372;28;20395;-81
2021/11/29 06:30:04;;;;;;;56.30;29.75;;;5.00;99.90;;;;;;5014731;28;20029;-83
2021/11/29 06:32:30;;;;;;;47.25;29.80;;;5.00;99.90;;;;;;5017464;28;20025;-85
2021/11/29 06:34:55;;;;;;;52.60;27.08;;;5.00;99.90;;;;;;5021383;28;20034;-82
2021/11/29 06:37:27;;;;;;;49.08;26.55;;;5.00;99.90;;;;;;5021877;28;20025;-82
2021/11/29 06:39:54;;;;;;;48.40;31.55;;;5.00;99.90;;;;;;5019244;28;20030;-81
2021/11/29 06:42:20;;;;;;;50.88;29.60;;;5.10;99.90;;;;;;5016905;28;20029;-80
2021/11/29 06:44:46;;;;;;;52.45;28.90;;;5.10;99.90;;;;;;5022243;28;20041;-82
2021/11/29 06:47:12;;;;;;;50.72;28.70;;;5.10;99.90;;;;;;5024175;28;20076;-84
2021/11/29 06:49:38;;;;;;;52.35;28.65;;;5.20;99.90;;;;;;5018278;28;20026;-84
2021/11/29 06:52:05;;;;;;;51.42;27.35;;;5.30;99.90;;;;;;5014716;28;20031;-82
2021/11/29 06:54:35;;;;;;;52.70;26.30;;;5.30;99.90;;;;;;5016361;28;20110;-83
2021/11/29 06:57:03;;;;;;;54.13;27.77;;;5.30;99.90;;;;;;4995257;28;20030;-82
2021/11/29 06:59:29;;;;;;;55.33;29.75;;;5.30;99.90;;;;;;4995975;28;20026;-81
2021/11/29 07:01:55;;;;;;;56.80;28.92;;;5.40;99.90;;;;;;5009371;28;20037;-81
2021/11/29 07:04:22;;;;;;;51.22;28.42;;;5.30;99.90;;;;;;5016474;28;20104;-88
2021/11/29 07:06:48;;;;;;;56.05;30.00;;;5.40;99.90;;;;;;5016017;28;20079;-86
2021/11/29 07:09:14;;;;;;;54.40;30.90;;;5.40;99.90;;;;;;5016481;28;20021;-84
2021/11/29 07:11:40;;;;;;;59.05;32.53;;;5.40;99.90;;;;;;5016147;28;20038;-85
2021/11/29 07:14:07;;;;;;;54.55;31.92;;;5.40;99.90;;;;;;5008134;28;20480;-82
2021/11/29 07:16:35;;;;;;;58.97;31.50;;;5.40;99.90;;;;;;4996491;28;20022;-87
2021/11/29 07:19:02;;;;;;;53.78;30.35;;;5.40;99.90;;;;;;4997951;28;20030;-82
2021/11/29 07:21:28;;;;;;;57.25;32.35;;;5.40;99.90;;;;;;5015882;28;20026;-88
2021/11/29 07:23:55;;;;;;;51.28;29.33;;;5.40;99.90;;;;;;5008934;28;20041;-88
2021/11/29 07:26:22;;;;;;;52.13;29.90;;;5.40;99.90;;;;;;5015948;28;20475;-88
2021/11/29 07:28:49;;;;;;;55.92;30.27;;;5.50;99.90;;;;;;5018539;28;20034;-88
2021/11/29 07:31:14;;;;;;;51.25;29.25;;;5.50;99.90;;;;;;5020712;28;20022;-89
2021/11/29 07:33:42;;;;;;;61.25;33.42;;;5.50;99.90;;;;;;5020280;28;20026;-88
2021/11/29 07:36:08;;;;;;;56.58;30.30;;;5.40;99.90;;;;;;5019627;28;20068;-89
2021/11/29 07:38:33;;;;;;;49.50;27.52;;;5.50;99.90;;;;;;5018175;28;20558;-89
2021/11/29 07:41:00;;;;;;;54.78;28.23;;;5.50;99.90;;;;;;5018672;28;20030;-87
2021/11/29 07:43:25;;;;;;;60.20;30.95;;;5.50;99.90;;;;;;5029720;28;20022;-87
2021/11/29 07:45:51;;;;;;;58.22;31.15;;;5.50;99.90;;;;;;5029953;28;20025;-84
2021/11/29 07:48:19;;;;;;;55.85;32.80;;;5.50;99.90;;;;;;5026543;28;20442;-87
2021/11/29 07:50:45;;;;;;;57.28;30.15;;;5.50;99.90;;;;;;5021115;28;20053;-88
2021/11/29 07:53:11;;;;;;;58.35;33.00;;;5.50;99.90;;;;;;5019880;28;20022;-88
2021/11/29 07:55:37;;;;;;;52.40;30.45;;;5.60;99.90;;;;;;5018738;28;20036;-90
2021/11/29 07:58:04;;;;;;;57.83;30.13;;;5.70;99.90;;;;;;5018403;28;20424;-87
2021/11/29 08:00:34;;;;;;;56.97;31.93;;;5.70;99.90;;;;;;5017159;28;20022;-90
2021/11/29 08:03:01;;;;;;;50.40;30.63;;;5.80;99.90;;;;;;5016300;28;20330;-88
2021/11/29 08:05:29;;;;;;;52.05;30.77;;;5.80;99.90;;;;;;5023322;28;20121;-88
2021/11/29 08:07:56;;;;;;;58.90;30.13;;;5.80;99.90;;;;;;5024576;28;20403;-88
2021/11/29 08:10:23;;;;;;;62.72;31.65;;;5.90;99.90;;;;;;5019858;28;20026;-89
2021/11/29 08:12:50;;;;;;;49.75;29.77;;;5.90;99.90;;;;;;5018341;28;20565;-86
2021/11/29 08:15:17;;;;;;;56.70;31.52;;;5.90;99.90;;;;;;5017197;28;20065;-88
2021/11/29 08:17:45;;;;;;;52.20;30.92;;;5.90;99.90;;;;;;5016333;28;20022;-88
2021/11/29 08:20:12;;;;;;;51.47;27.50;;;5.90;99.90;;;;;;5017008;28;20080;-90
2021/11/29 08:22:38;;;;;;;52.10;30.60;;;6.00;99.90;;;;;;5018796;28;20028;-88
2021/11/29 08:25:05;;;;;;;54.70;29.90;;;6.00;99.90;;;;;;5032136;28;20041;-88
2021/11/29 08:27:33;;;;;;;56.30;31.73;;;6.10;99.90;;;;;;5035398;28;20018;-85
2021/11/29 08:30:00;;;;;;;51.20;30.63;;;6.10;99.90;;;;;;5029880;28;20475;-86
2021/11/29 08:32:26;;;;;;;53.60;31.33;;;6.20;99.90;;;;;;5028366;28;20033;-87
2021/11/29 08:34:52;;;;;;;50.78;28.98;;;6.20;99.90;;;;;;5022042;28;20724;-87
2021/11/29 08:37:18;;;;;;;52.28;31.25;;;6.20;99.90;;;;;;5020067;28;20053;-91
2021/11/29 08:39:44;;;;;;;56.38;31.05;;;6.20;99.90;;;;;;5033348;28;20022;-89
2021/11/29 08:42:10;;;;;;;51.47;30.15;;;6.20;99.90;;;;;;5017278;28;20025;-88
2021/11/29 08:44:36;;;;;;;55.75;29.80;;;6.20;99.90;;;;;;5017046;28;20029;-88
2021/11/29 08:47:03;;;;;;;57.75;30.42;;;6.30;99.90;;;;;;5031862;28;20088;-88
2021/11/29 08:49:29;;;;;;;53.80;31.88;;;6.30;99.90;;;;;;5015364;28;20026;-88
2021/11/29 08:51:56;;;;;;;55.72;30.98;;;6.40;99.90;;;;;;5015461;28;20541;-87
2021/11/29 08:54:23;;;;;;;51.75;31.17;;;6.40;99.90;;;;;;5030519;28;20034;-88
2021/11/29 08:56:50;;;;;;;58.70;29.85;;;6.40;99.90;;;;;;5015105;28;20434;-87
2021/11/29 08:59:18;;;;;;;49.08;28.15;;;6.40;99.90;;;;;;5018562;28;20060;-88
2021/11/29 09:01:45;;;;;;;49.10;26.90;;;6.40;99.90;;;;;;5015926;28;20391;-89
2021/11/29 09:04:12;;;;;;;50.60;28.23;;;6.40;99.90;;;;;;5017916;28;20061;-89
2021/11/29 09:06:38;;;;;;;48.22;28.38;;;6.40;99.90;;;;;;5019430;28;20060;-88
2021/11/29 09:09:05;;;;;;;58.40;29.90;;;6.40;99.90;;;;;;5032538;28;20030;-88
2021/11/29 09:11:31;;;;;;;57.08;32.03;;;6.40;99.90;;;;;;5030674;28;20069;-88
2021/11/29 09:13:57;;;;;;;48.97;29.85;;;6.50;99.90;;;;;;5035493;28;20026;-90
2021/11/29 09:16:24;;;;;;;55.30;32.13;;;6.50;99.80;;;;;;5017106;28;20050;-88
2021/11/29 09:18:50;;;;;;;49.97;29.77;;;6.50;99.80;;;;;;5031725;28;20479;-88
2021/11/29 09:21:18;;;;;;;51.83;29.20;;;6.50;99.80;;;;;;5017019;28;20045;-89
2021/11/29 09:23:47;;;;;;;48.65;30.55;;;6.60;99.80;;;;;;5017953;28;20475;-89
2021/11/29 09:26:14;;;;;;;46.47;26.77;;;6.60;99.60;;;;;;5018340;28;20054;-87
2021/11/29 09:28:41;;;;;;;46.25;28.83;;;6.50;99.70;;;;;;5021151;28;20018;-89
2021/11/29 09:31:09;;;;;;;54.65;29.67;;;6.50;99.80;;;;;;5017766;28;20046;-91
2021/11/29 09:33:36;;;;;;;46.42;29.75;;;6.50;99.80;;;;;;5017357;28;20067;-89
2021/11/29 09:36:03;;;;;;;49.03;28.15;;;6.50;99.90;;;;;;5015478;28;20071;-88
2021/11/29 09:38:29;;;;;;;48.40;28.03;;;6.60;99.80;;;;;;5018114;28;20018;-90
2021/11/29 09:40:55;;;;;;;52.33;27.63;;;6.60;99.80;;;;;;5020240;28;20273;-87
2021/11/29 09:43:21;;;;;;;50.30;28.00;;;6.50;99.70;;;;;;5023718;28;20125;-89
2021/11/29 09:45:49;;;;;;;48.10;30.08;;;6.60;99.90;;;;;;5019367;28;20026;-88
2021/11/29 09:48:16;;;;;;;43.00;27.27;;;6.60;99.80;;;;;;5019903;28;20026;-86
2021/11/29 09:50:46;;;;;;;46.00;29.25;;;6.60;99.80;;;;;;5020338;28;20026;-90
2021/11/29 09:53:14;;;;;;;48.15;29.17;;;6.70;99.70;;;;;;5031535;28;20030;-88
2021/11/29 09:55:40;;;;;;;48.72;29.02;;;6.70;99.70;;;;;;5038967;28;20038;-88
2021/11/29 09:58:08;;;;;;;49.67;28.00;;;6.70;99.70;;;;;;5038288;28;20125;-88
2021/11/29 10:00:38;;;;;;;49.65;29.63;;;6.70;99.60;;;;;;5022418;28;20041;-90
2021/11/29 10:03:06;;;;;;;50.80;29.48;;;6.70;99.60;;;;;;5021094;28;20053;-89
2021/11/29 10:05:34;;;;;;;41.78;26.50;;;6.70;99.60;;;;;;5019956;28;20134;-88
2021/11/29 10:08:17;;;;;;;44.88;27.50;;;6.60;99.50;;;;;;5020225;28;20026;-88
2021/11/29 10:10:58;;;;;;;43.45;27.73;;;6.60;99.60;;;;;;5031680;28;20026;-89
2021/11/29 10:13:26;;;;;;;47.67;27.90;;;6.70;99.70;;;;;;5021841;28;20050;-90
2021/11/29 10:15:53;;;;;;;51.90;28.60;;;6.70;99.70;;;;;;5018409;28;20407;-88
2021/11/29 10:18:26;;;;;;;47.00;29.03;;;6.70;99.60;;;;;;5018498;28;20022;-89
2021/11/29 10:20:58;;;;;;;47.25;30.02;;;6.80;99.60;;;;;;5035019;28;20046;-90
2021/11/29 10:23:36;;;;;;;47.72;29.83;;;6.80;99.50;;;;;;5024171;28;20022;-89
2021/11/29 10:26:10;;;;;;;56.15;31.92;;;6.80;99.50;;;;;;5019688;28;20129;-90
2021/11/29 10:28:39;;;;;;;43.45;28.88;;;6.80;99.30;;;;;;5017250;28;20073;-90
2021/11/29 10:31:19;;;;;;;47.85;28.35;;;6.70;99.40;;;;;;5019568;28;20040;-88
2021/11/29 10:34:11;;;;;;;48.88;30.48;;;6.80;99.50;;;;;;5023162;28;20021;-90
2021/11/29 10:36:45;;;;;;;45.25;27.35;;;6.80;99.50;;;;;;5036125;28;20582;-88
2021/11/29 10:39:15;;;;;;;46.33;29.42;;;6.80;99.50;;;;;;5036470;28;20026;-89
2021/11/29 10:41:51;;;;;;;44.05;27.85;;;6.70;99.50;;;;;;5018085;28;20424;-90
2021/11/29 10:44:22;;;;;;;44.03;28.42;;;6.80;99.60;;;;;;5017596;28;20080;-92
2021/11/29 10:46:51;;;;;;;48.47;28.00;;;6.80;99.50;;;;;;5021337;28;20083;-88
2021/11/29 10:49:20;;;;;;;45.38;28.65;;;6.80;99.50;;;;;;5022833;28;20543;-89
2021/11/29 10:51:49;;;;;;;47.78;29.55;;;6.80;99.50;;;;;;5018754;28;20029;-87
2021/11/29 10:54:22;;;;;;;43.33;28.83;;;6.80;99.40;;;;;;5019883;28;20028;-88
2021/11/29 10:56:49;;;;;;;45.20;27.67;;;6.80;99.50;;;;;;5019733;28;20424;-86
2021/11/29 10:59:18;;;;;;;45.25;29.42;;;6.80;99.50;;;;;;5025873;28;20424;-89
2021/11/29 11:01:47;;;;;;;49.15;31.27;;;6.90;99.50;;;;;;5020241;28;20030;-89
2021/11/29 11:04:18;;;;;;;50.70;30.45;;;6.90;99.50;;;;;;5021205;28;20022;-88
2021/11/29 11:06:47;;;;;;;54.28;30.63;;;6.80;99.40;;;;;;5022519;28;20026;-90
2021/11/29 11:09:24;;;;;;;45.08;29.27;;;6.90;99.40;;;;;;5021352;28;20018;-88
2021/11/29 11:11:59;;;;;;;47.30;29.85;;;6.80;99.40;;;;;;5019825;28;20049;-90
2021/11/29 11:14:31;;;;;;;46.13;29.05;;;6.80;99.40;;;;;;5017337;28;20495;-90
2021/11/29 11:17:03;;;;;;;51.38;30.27;;;6.80;99.40;;;;;;5005842;28;20034;-89
2021/11/29 11:19:32;;;;;;;44.47;29.38;;;6.80;99.50;;;;;;4998534;28;20499;-88
2021/11/29 11:22:12;;;;;;;50.80;28.45;;;6.80;99.50;;;;;;4998726;28;20484;-91
2021/11/29 11:24:45;;;;;;;53.22;29.30;;;6.80;99.40;;;;;;5024876;28;20116;-88
2021/11/29 11:27:12;;;;;;;41.92;27.70;;;6.70;99.50;;;;;;5028244;28;20018;-89
2021/11/29 11:29:49;;;;;;;45.95;28.98;;;6.70;99.60;;;;;;5040702;28;20395;-89
2021/11/29 11:32:26;;;;;;;49.95;30.70;;;6.70;99.60;;;;;;5018938;28;20052;-89
2021/11/29 11:34:58;;;;;;;49.08;29.65;;;6.70;99.60;;;;;;5018584;28;20489;-90
2021/11/29 11:37:34;;;;;;;51.45;30.08;;;6.70;99.70;;;;;;5023592;28;20033;-90
2021/11/29 11:40:01;;;;;;;46.10;29.08;;;6.70;99.60;;;;;;5021252;28;20026;-88
2021/11/29 11:42:30;;;;;;;45.72;30.67;;;6.70;99.60;;;;;;5019390;28;20025;-91
2021/11/29 11:44:56;;;;;;;45.70;28.35;;;6.60;99.80;;;;;;5017498;28;20510;-88
2021/11/29 11:47:25;;;;;;;46.38;31.10;;;6.70;99.90;;;;;;5017550;28;20033;-90
2021/11/29 11:49:51;;;;;;;52.78;31.05;;;6.60;99.80;;;;;;5019061;28;20032;-90
2021/11/29 11:52:20;;;;;;;49.95;29.92;;;6.60;99.90;;;;;;5021701;28;20025;-88
2021/11/29 11:54:47;;;;;;;52.20;31.00;;;6.60;99.90;;;;;;5024258;28;20041;-89
2021/11/29 11:57:19;;;;;;;52.22;31.38;;;6.60;99.90;;;;;;5018398;28;20026;-89
2021/11/29 11:59:54;;;;;;;50.42;30.40;;;6.60;99.90;;;;;;5020393;28;20488;-89
2021/11/29 12:02:21;;;;;;;51.33;31.48;;;6.60;99.90;;;;;;5024948;28;20037;-90
2021/11/29 12:05:19;;;;;;;47.47;31.20;;;6.60;99.90;;;;;;5023352;28;20025;-89
2021/11/29 12:07:46;;;;;;;52.72;30.10;;;6.60;99.90;;;;;;5027128;28;20030;-89
2021/11/29 12:10:39;;;;;;;53.60;30.10;;;6.60;99.90;;;;;;5022542;28;20029;-89
2021/11/29 12:13:15;;;;;;;47.35;27.90;;;6.60;99.90;;;;;;5026410;28;20081;-88
2021/11/29 12:15:50;;;;;;;50.28;30.80;;;6.60;99.90;;;;;;5017903;28;20053;-90
2021/11/29 12:18:41;;;;;;;49.13;28.90;;;6.60;99.90;;;;;;5002237;28;20019;-90
2021/11/29 12:21:21;;;;;;;53.53;30.85;;;6.60;99.90;;;;;;5003107;28;20073;-90
2021/11/29 12:24:19;;;;;;;51.08;29.88;;;6.60;99.90;;;;;;5018641;28;20018;-90
2021/11/29 12:26:45;;;;;;;55.92;31.30;;;6.60;99.90;;;;;;5023739;28;20014;-89
2021/11/29 12:29:23;;;;;;;52.65;32.60;;;6.60;99.90;;;;;;5047109;28;20029;-91
2021/11/29 12:32:01;;;;;;;53.97;29.88;;;6.60;99.90;;;;;;5030541;28;20081;-90
2021/11/29 12:34:49;;;;;;;52.38;31.15;;;6.60;99.90;;;;;;5046845;28;20037;-88
2021/11/29 12:37:23;;;;;;;50.53;29.75;;;6.60;99.90;;;;;;5027364;28;20089;-89
2021/11/29 12:39:54;;;;;;;55.28;31.83;;;6.50;99.90;;;;;;5023240;28;20022;-89
2021/11/29 12:42:20;;;;;;;49.90;29.73;;;6.60;99.90;;;;;;5025378;28;20041;-89